sensor_id;sensor_type;location;lat;lon;timestamp;temperature;humidity
57719;DHT22;43561;50.090;18.522;2022-12-17T00:07:15;-3.30;99.90
57719;DHT22;43561;50.090;18.522;2022-12-17T00:17:17;-3.30;99.90
57719;DHT22;43561;50.090;18.522;2022-12-17T00:27:19;-3.30;99.90
57719;DHT22;43561;50.090;18.522;2022-12-17T00:37:21;-3.40;99.90
57719;DHT22;43561;50.090;18.522;2022-12-17T00:47:23;-3.40;99.90
57719;DHT22;43561;50.090;18.522;2022-12-17T00:57:24;-3.50;99.90
57719;DHT22;43561;50.090;18.522;2022-12-17T01:07:27;-3.50;99.90
57719;DHT22;43561;50.090;18.522;2022-12-17T01:17:29;-3.50;99.90
57719;DHT22;43561;50.090;18.522;2022-12-17T01:27:31;-3.60;99.90
57719;DHT22;43561;50.090;18.522;2022-12-17T01:37:32;-3.60;99.90
57719;DHT22;43561;50.090;18.522;2022-12-17T01:47:45;-3.60;99.90
57719;DHT22;43561;50.090;18.522;2022-12-17T01:57:49;-3.60;99.90
57719;DHT22;43561;50.090;18.522;2022-12-17T02:18:02;-3.60;99.90
57719;DHT22;43561;50.090;18.522;2022-12-17T02:28:07;-3.60;99.90
57719;DHT22;43561;50.090;18.522;2022-12-17T02:38:23;-3.70;99.90
57719;DHT22;43561;50.090;18.522;2022-12-17T02:48:26;-3.70;99.90
57719;DHT22;43561;50.090;18.522;2022-12-17T02:58:28;-3.80;99.90
57719;DHT22;43561;50.090;18.522;2022-12-17T03:08:30;-3.80;99.90
57719;DHT22;43561;50.090;18.522;2022-12-17T03:18:32;-3.70;99.90
57719;DHT22;43561;50.090;18.522;2022-12-17T03:28:34;-3.70;99.90
57719;DHT22;43561;50.090;18.522;2022-12-17T03:38:36;-3.60;99.90
57719;DHT22;43561;50.090;18.522;2022-12-17T03:48:38;-3.70;99.90
57719;DHT22;43561;50.090;18.522;2022-12-17T03:58:39;-3.70;99.90
57719;DHT22;43561;50.090;18.522;2022-12-17T04:08:41;-3.70;99.90
57719;DHT22;43561;50.090;18.522;2022-12-17T04:18:43;-3.80;99.90
57719;DHT22;43561;50.090;18.522;2022-12-17T04:28:45;-3.80;99.90
57719;DHT22;43561;50.090;18.522;2022-12-17T04:38:47;-3.90;99.90
57719;DHT22;43561;50.090;18.522;2022-12-17T04:48:49;-3.90;99.90
57719;DHT22;43561;50.090;18.522;2022-12-17T04:58:51;-3.90;99.90
57719;DHT22;43561;50.090;18.522;2022-12-17T05:08:52;-3.90;99.90
57719;DHT22;43561;50.090;18.522;2022-12-17T05:18:54;-4.00;99.90
57719;DHT22;43561;50.090;18.522;2022-12-17T05:28:56;-4.00;99.90
57719;DHT22;43561;50.090;18.522;2022-12-17T05:38:58;-4.00;99.90
57719;DHT22;43561;50.090;18.522;2022-12-17T05:49:00;-3.90;99.90
57719;DHT22;43561;50.090;18.522;2022-12-17T05:59:02;-4.10;99.90
57719;DHT22;43561;50.090;18.522;2022-12-17T06:09:05;-4.20;99.90
57719;DHT22;43561;50.090;18.522;2022-12-17T06:19:07;-4.20;99.90
57719;DHT22;43561;50.090;18.522;2022-12-17T06:29:09;-4.10;99.90
57719;DHT22;43561;50.090;18.522;2022-12-17T06:39:11;-4.30;99.90
57719;DHT22;43561;50.090;18.522;2022-12-17T06:49:13;-4.30;99.90
57719;DHT22;43561;50.090;18.522;2022-12-17T06:59:14;-4.30;99.90
57719;DHT22;43561;50.090;18.522;2022-12-17T07:09:17;-4.30;99.90
57719;DHT22;43561;50.090;18.522;2022-12-17T07:19:18;-4.30;99.90
57719;DHT22;43561;50.090;18.522;2022-12-17T07:29:27;-4.30;99.90
57719;DHT22;43561;50.090;18.522;2022-12-17T07:39:29;-4.30;99.90
57719;DHT22;43561;50.090;18.522;2022-12-17T07:49:31;-4.30;99.90
57719;DHT22;43561;50.090;18.522;2022-12-17T07:59:33;-4.30;99.90
57719;DHT22;43561;50.090;18.522;2022-12-17T08:09:35;-4.30;99.90
57719;DHT22;43561;50.090;18.522;2022-12-17T08:19:37;-4.10;99.90
57719;DHT22;43561;50.090;18.522;2022-12-17T08:29:38;-4.10;99.90
57719;DHT22;43561;50.090;18.522;2022-12-17T08:39:41;-4.00;99.90
57719;DHT22;43561;50.090;18.522;2022-12-17T08:49:42;-4.00;99.90
57719;DHT22;43561;50.090;18.522;2022-12-17T08:59:45;-4.00;99.90
57719;DHT22;43561;50.090;18.522;2022-12-17T09:09:46;-4.00;99.90
57719;DHT22;43561;50.090;18.522;2022-12-17T09:19:48;-3.80;99.90
57719;DHT22;43561;50.090;18.522;2022-12-17T09:29:50;-3.70;99.90
57719;DHT22;43561;50.090;18.522;2022-12-17T09:39:52;-3.60;99.90
57719;DHT22;43561;50.090;18.522;2022-12-17T09:49:58;-3.70;99.90
57719;DHT22;43561;50.090;18.522;2022-12-17T10:00:19;-3.70;99.90
57719;DHT22;43561;50.090;18.522;2022-12-17T10:10:25;-3.60;99.90
57719;DHT22;43561;50.090;18.522;2022-12-17T10:20:41;-3.10;99.90
57719;DHT22;43561;50.090;18.522;2022-12-17T10:30:46;-3.50;99.90
57719;DHT22;43561;50.090;18.522;2022-12-17T10:40:49;-3.50;99.90
57719;DHT22;43561;50.090;18.522;2022-12-17T10:50:50;-3.80;99.90
57719;DHT22;43561;50.090;18.522;2022-12-17T11:00:58;-3.40;99.90
57719;DHT22;43561;50.090;18.522;2022-12-17T11:11:03;-3.60;99.90
57719;DHT22;43561;50.090;18.522;2022-12-17T11:21:19;-3.60;99.90
57719;DHT22;43561;50.090;18.522;2022-12-17T11:31:49;-3.50;99.90
57719;DHT22;43561;50.090;18.522;2022-12-17T11:41:58;-3.60;99.90
57719;DHT22;43561;50.090;18.522;2022-12-17T11:52:27;-3.60;99.90
57719;DHT22;43561;50.090;18.522;2022-12-17T12:13:39;-3.40;99.90
57719;DHT22;43561;50.090;18.522;2022-12-17T12:24:20;-3.30;99.90
57719;DHT22;43561;50.090;18.522;2022-12-17T12:34:28;-3.50;99.90
57719;DHT22;43561;50.090;18.522;2022-12-17T12:44:39;-3.60;99.90
57719;DHT22;43561;50.090;18.522;2022-12-17T12:54:52;-3.50;99.90
57719;DHT22;43561;50.090;18.522;2022-12-17T13:04:54;-3.50;99.90
57719;DHT22;43561;50.090;18.522;2022-12-17T13:25:21;-3.40;99.90
57719;DHT22;43561;50.090;18.522;2022-12-17T13:35:33;-3.40;99.90
57719;DHT22;43561;50.090;18.522;2022-12-17T13:45:38;-3.40;99.90
57719;DHT22;43561;50.090;18.522;2022-12-17T13:55:40;-3.50;99.90
57719;DHT22;43561;50.090;18.522;2022-12-17T14:05:43;-3.60;99.90
57719;DHT22;43561;50.090;18.522;2022-12-17T14:15:48;-3.50;99.90
57719;DHT22;43561;50.090;18.522;2022-12-17T14:25:50;-3.40;99.90
57719;DHT22;43561;50.090;18.522;2022-12-17T14:35:54;-3.40;99.90
57719;DHT22;43561;50.090;18.522;2022-12-17T14:45:59;-3.50;99.90
57719;DHT22;43561;50.090;18.522;2022-12-17T14:56:01;-3.60;99.90
57719;DHT22;43561;50.090;18.522;2022-12-17T15:06:05;-3.70;99.90
57719;DHT22;43561;50.090;18.522;2022-12-17T15:16:08;-3.70;99.90
57719;DHT22;43561;50.090;18.522;2022-12-17T15:26:10;-3.60;99.90
57719;DHT22;43561;50.090;18.522;2022-12-17T15:36:12;-3.80;99.90
57719;DHT22;43561;50.090;18.522;2022-12-17T15:46:14;-3.80;99.90
57719;DHT22;43561;50.090;18.522;2022-12-17T15:56:19;-3.90;99.90
57719;DHT22;43561;50.090;18.522;2022-12-17T16:06:22;-3.90;99.90
57719;DHT22;43561;50.090;18.522;2022-12-17T16:16:23;-4.00;99.90
57719;DHT22;43561;50.090;18.522;2022-12-17T16:26:26;-4.00;99.90
57719;DHT22;43561;50.090;18.522;2022-12-17T16:36:28;-4.00;99.90
57719;DHT22;43561;50.090;18.522;2022-12-17T16:46:33;-4.10;99.90
57719;DHT22;43561;50.090;18.522;2022-12-17T16:56:36;-4.00;99.90
57719;DHT22;43561;50.090;18.522;2022-12-17T17:06:50;-4.00;99.90
57719;DHT22;43561;50.090;18.522;2022-12-17T17:16:52;-4.20;99.90
57719;DHT22;43561;50.090;18.522;2022-12-17T17:26:54;-4.10;99.90
57719;DHT22;43561;50.090;18.522;2022-12-17T17:36:56;-4.10;99.90
57719;DHT22;43561;50.090;18.522;2022-12-17T17:46:58;-4.10;99.90
57719;DHT22;43561;50.090;18.522;2022-12-17T17:57:00;-4.20;99.90
57719;DHT22;43561;50.090;18.522;2022-12-17T18:07:02;-4.10;99.90
57719;DHT22;43561;50.090;18.522;2022-12-17T18:17:24;-4.10;99.90
57719;DHT22;43561;50.090;18.522;2022-12-17T18:27:26;-4.30;99.90
57719;DHT22;43561;50.090;18.522;2022-12-17T18:37:28;-4.30;99.90
57719;DHT22;43561;50.090;18.522;2022-12-17T18:47:30;-4.20;99.90
57719;DHT22;43561;50.090;18.522;2022-12-17T18:57:32;-4.40;99.90
57719;DHT22;43561;50.090;18.522;2022-12-17T19:07:34;-4.40;99.90
57719;DHT22;43561;50.090;18.522;2022-12-17T19:17:35;-4.40;99.90
57719;DHT22;43561;50.090;18.522;2022-12-17T19:27:38;-4.40;99.90
57719;DHT22;43561;50.090;18.522;2022-12-17T19:37:40;-4.40;99.90
57719;DHT22;43561;50.090;18.522;2022-12-17T19:47:41;-4.50;99.90
57719;DHT22;43561;50.090;18.522;2022-12-17T19:57:43;-4.60;99.90
57719;DHT22;43561;50.090;18.522;2022-12-17T20:07:45;-4.60;99.90
57719;DHT22;43561;50.090;18.522;2022-12-17T20:17:47;-4.70;99.90
57719;DHT22;43561;50.090;18.522;2022-12-17T20:27:49;-4.70;99.90
57719;DHT22;43561;50.090;18.522;2022-12-17T20:37:51;-4.70;99.90
57719;DHT22;43561;50.090;18.522;2022-12-17T20:47:53;-4.70;99.90
57719;DHT22;43561;50.090;18.522;2022-12-17T20:57:55;-4.60;99.90
57719;DHT22;43561;50.090;18.522;2022-12-17T21:07:56;-4.60;99.90
57719;DHT22;43561;50.090;18.522;2022-12-17T21:17:58;-4.60;99.90
57719;DHT22;43561;50.090;18.522;2022-12-17T21:28:00;-4.60;99.90
57719;DHT22;43561;50.090;18.522;2022-12-17T21:38:02;-4.60;99.90
57719;DHT22;43561;50.090;18.522;2022-12-17T21:48:05;-4.60;99.90
57719;DHT22;43561;50.090;18.522;2022-12-17T21:58:15;-4.60;99.90
57719;DHT22;43561;50.090;18.522;2022-12-17T22:08:17;-4.50;99.90
57719;DHT22;43561;50.090;18.522;2022-12-17T22:18:19;-4.50;99.90
57719;DHT22;43561;50.090;18.522;2022-12-17T22:28:21;-4.50;99.90
57719;DHT22;43561;50.090;18.522;2022-12-17T22:38:25;-4.20;99.90
57719;DHT22;43561;50.090;18.522;2022-12-17T22:48:47;-4.40;99.90
57719;DHT22;43561;50.090;18.522;2022-12-17T22:58:49;-4.40;99.90
57719;DHT22;43561;50.090;18.522;2022-12-17T23:08:51;-4.40;99.90
57719;DHT22;43561;50.090;18.522;2022-12-17T23:18:54;-4.40;99.90
57719;DHT22;43561;50.090;18.522;2022-12-17T23:29:02;-4.50;99.90
57719;DHT22;43561;50.090;18.522;2022-12-17T23:39:05;-4.60;99.90
57719;DHT22;43561;50.090;18.522;2022-12-17T23:49:07;-4.50;99.90
57719;DHT22;43561;50.090;18.522;2022-12-17T23:59:09;-4.40;99.90
